Terminal Aerodrome Forecast
Issued by NWS

Home | Current Version | Previous Version | Text Only | Print | Product List | Glossary On
Versions: 1 2 3 4 5 6 7 8 9 10 11 12 13 14 15 16 17
345
FTUS43 KPAH 091136 AAA
TAFCGI
TAF AMD
KCGI 091136Z 0912/1012 33006KT P6SM SKC
     FM100000 00000KT P6SM FEW200=

USA.gov is the U.S. government's official web portal to all federal, state and local government web resources and services.